sensor_id;sensor_type;location;lat;lon;timestamp;P1;durP1;ratioP1;P2;durP2;ratioP2
54575;SDS011;40472;53.486;14.542;2022-10-31T00:01:00;58.47;;;21.83;;
54575;SDS011;40472;53.486;14.542;2022-10-31T00:03:26;57.28;;;21.05;;
54575;SDS011;40472;53.486;14.542;2022-10-31T00:05:52;62.35;;;21.38;;
54575;SDS011;40472;53.486;14.542;2022-10-31T00:08:18;68.82;;;23.30;;
54575;SDS011;40472;53.486;14.542;2022-10-31T00:10:44;53.40;;;20.00;;
54575;SDS011;40472;53.486;14.542;2022-10-31T00:13:11;53.30;;;21.48;;
54575;SDS011;40472;53.486;14.542;2022-10-31T00:15:39;65.55;;;21.60;;
54575;SDS011;40472;53.486;14.542;2022-10-31T00:18:06;68.13;;;22.25;;
54575;SDS011;40472;53.486;14.542;2022-10-31T00:20:34;62.05;;;22.27;;
54575;SDS011;40472;53.486;14.542;2022-10-31T00:23:05;55.42;;;21.23;;
54575;SDS011;40472;53.486;14.542;2022-10-31T00:28:49;55.90;;;20.42;;
54575;SDS011;40472;53.486;14.542;2022-10-31T00:31:29;53.25;;;22.08;;
54575;SDS011;40472;53.486;14.542;2022-10-31T00:33:55;49.85;;;20.67;;
54575;SDS011;40472;53.486;14.542;2022-10-31T00:36:22;57.17;;;19.00;;
54575;SDS011;40472;53.486;14.542;2022-10-31T00:38:47;51.88;;;20.98;;
54575;SDS011;40472;53.486;14.542;2022-10-31T00:41:16;56.30;;;19.73;;
54575;SDS011;40472;53.486;14.542;2022-10-31T00:43:43;48.47;;;18.02;;
54575;SDS011;40472;53.486;14.542;2022-10-31T00:46:09;47.58;;;17.02;;
54575;SDS011;40472;53.486;14.542;2022-10-31T00:48:36;50.53;;;18.55;;
54575;SDS011;40472;53.486;14.542;2022-10-31T00:51:02;58.38;;;19.77;;
54575;SDS011;40472;53.486;14.542;2022-10-31T00:53:27;41.72;;;18.25;;
54575;SDS011;40472;53.486;14.542;2022-10-31T00:55:53;47.80;;;17.83;;
54575;SDS011;40472;53.486;14.542;2022-10-31T00:58:19;53.65;;;18.10;;
54575;SDS011;40472;53.486;14.542;2022-10-31T01:00:47;47.88;;;17.80;;
54575;SDS011;40472;53.486;14.542;2022-10-31T01:03:20;39.90;;;15.70;;
54575;SDS011;40472;53.486;14.542;2022-10-31T01:08:33;40.28;;;15.82;;
54575;SDS011;40472;53.486;14.542;2022-10-31T01:11:00;38.05;;;16.75;;
54575;SDS011;40472;53.486;14.542;2022-10-31T01:13:31;35.83;;;16.45;;
54575;SDS011;40472;53.486;14.542;2022-10-31T01:15:58;45.67;;;16.83;;
54575;SDS011;40472;53.486;14.542;2022-10-31T01:18:25;47.63;;;16.60;;
54575;SDS011;40472;53.486;14.542;2022-10-31T01:44:58;36.08;;;15.95;;
54575;SDS011;40472;53.486;14.542;2022-10-31T01:47:46;38.45;;;16.83;;
54575;SDS011;40472;53.486;14.542;2022-10-31T01:50:33;39.45;;;15.35;;
54575;SDS011;40472;53.486;14.542;2022-10-31T01:53:01;43.00;;;16.50;;
54575;SDS011;40472;53.486;14.542;2022-10-31T01:55:28;40.63;;;15.93;;
54575;SDS011;40472;53.486;14.542;2022-10-31T01:57:58;46.20;;;17.45;;
54575;SDS011;40472;53.486;14.542;2022-10-31T02:00:37;52.95;;;18.15;;
54575;SDS011;40472;53.486;14.542;2022-10-31T02:03:03;51.53;;;17.48;;
54575;SDS011;40472;53.486;14.542;2022-10-31T02:05:31;47.65;;;18.20;;
54575;SDS011;40472;53.486;14.542;2022-10-31T02:08:20;52.97;;;17.83;;
54575;SDS011;40472;53.486;14.542;2022-10-31T02:17:52;61.58;;;16.05;;
54575;SDS011;40472;53.486;14.542;2022-10-31T02:20:19;48.00;;;17.30;;
54575;SDS011;40472;53.486;14.542;2022-10-31T02:28:48;58.05;;;17.80;;
54575;SDS011;40472;53.486;14.542;2022-10-31T02:39:26;55.03;;;17.80;;
54575;SDS011;40472;53.486;14.542;2022-10-31T02:44:57;50.33;;;16.88;;
54575;SDS011;40472;53.486;14.542;2022-10-31T02:47:41;47.85;;;17.10;;
54575;SDS011;40472;53.486;14.542;2022-10-31T03:00:13;59.17;;;18.50;;
54575;SDS011;40472;53.486;14.542;2022-10-31T03:05:26;52.10;;;16.77;;
54575;SDS011;40472;53.486;14.542;2022-10-31T03:08:25;71.70;;;18.23;;
54575;SDS011;40472;53.486;14.542;2022-10-31T03:11:00;51.15;;;18.08;;
54575;SDS011;40472;53.486;14.542;2022-10-31T03:13:35;55.70;;;18.35;;
54575;SDS011;40472;53.486;14.542;2022-10-31T03:16:14;54.53;;;18.50;;
54575;SDS011;40472;53.486;14.542;2022-10-31T03:19:06;55.58;;;17.88;;
54575;SDS011;40472;53.486;14.542;2022-10-31T03:24:04;59.60;;;19.17;;
54575;SDS011;40472;53.486;14.542;2022-10-31T03:26:31;56.42;;;19.08;;
54575;SDS011;40472;53.486;14.542;2022-10-31T03:29:04;57.33;;;18.33;;
54575;SDS011;40472;53.486;14.542;2022-10-31T03:31:43;49.88;;;17.63;;
54575;SDS011;40472;53.486;14.542;2022-10-31T03:34:22;48.75;;;19.08;;
54575;SDS011;40472;53.486;14.542;2022-10-31T03:36:49;50.08;;;19.20;;
54575;SDS011;40472;53.486;14.542;2022-10-31T03:39:20;62.70;;;19.08;;
54575;SDS011;40472;53.486;14.542;2022-10-31T03:44:39;56.95;;;19.30;;
54575;SDS011;40472;53.486;14.542;2022-10-31T03:47:10;63.42;;;18.65;;
54575;SDS011;40472;53.486;14.542;2022-10-31T03:49:36;48.38;;;18.40;;
54575;SDS011;40472;53.486;14.542;2022-10-31T03:52:08;50.35;;;19.42;;
54575;SDS011;40472;53.486;14.542;2022-10-31T03:54:45;49.10;;;18.65;;
54575;SDS011;40472;53.486;14.542;2022-10-31T03:59:42;60.47;;;19.48;;
54575;SDS011;40472;53.486;14.542;2022-10-31T04:02:14;66.07;;;18.98;;
54575;SDS011;40472;53.486;14.542;2022-10-31T04:04:42;58.13;;;18.95;;
54575;SDS011;40472;53.486;14.542;2022-10-31T04:07:10;58.45;;;18.20;;
54575;SDS011;40472;53.486;14.542;2022-10-31T04:09:37;56.78;;;18.58;;
54575;SDS011;40472;53.486;14.542;2022-10-31T04:12:06;58.35;;;18.38;;
54575;SDS011;40472;53.486;14.542;2022-10-31T04:14:36;54.72;;;17.63;;
54575;SDS011;40472;53.486;14.542;2022-10-31T04:17:05;51.70;;;16.67;;
54575;SDS011;40472;53.486;14.542;2022-10-31T04:19:34;58.08;;;18.98;;
54575;SDS011;40472;53.486;14.542;2022-10-31T04:22:00;69.45;;;19.25;;
54575;SDS011;40472;53.486;14.542;2022-10-31T04:24:26;74.20;;;18.50;;
54575;SDS011;40472;53.486;14.542;2022-10-31T04:26:53;58.75;;;18.30;;
54575;SDS011;40472;53.486;14.542;2022-10-31T04:29:22;67.80;;;19.08;;
54575;SDS011;40472;53.486;14.542;2022-10-31T04:31:47;71.75;;;19.27;;
54575;SDS011;40472;53.486;14.542;2022-10-31T04:34:13;61.17;;;17.63;;
54575;SDS011;40472;53.486;14.542;2022-10-31T04:36:39;64.97;;;18.98;;
54575;SDS011;40472;53.486;14.542;2022-10-31T04:39:05;67.38;;;20.60;;
54575;SDS011;40472;53.486;14.542;2022-10-31T04:41:30;60.03;;;20.77;;
54575;SDS011;40472;53.486;14.542;2022-10-31T04:43:56;67.70;;;22.73;;
54575;SDS011;40472;53.486;14.542;2022-10-31T04:46:22;68.80;;;21.40;;
54575;SDS011;40472;53.486;14.542;2022-10-31T04:48:48;71.15;;;22.52;;
54575;SDS011;40472;53.486;14.542;2022-10-31T04:51:13;68.47;;;20.95;;
54575;SDS011;40472;53.486;14.542;2022-10-31T04:53:39;72.82;;;21.13;;
54575;SDS011;40472;53.486;14.542;2022-10-31T04:56:05;57.95;;;21.10;;
54575;SDS011;40472;53.486;14.542;2022-10-31T04:58:31;67.55;;;19.00;;
54575;SDS011;40472;53.486;14.542;2022-10-31T05:00:57;75.82;;;20.33;;
54575;SDS011;40472;53.486;14.542;2022-10-31T05:03:22;67.18;;;20.88;;
54575;SDS011;40472;53.486;14.542;2022-10-31T05:05:48;64.35;;;21.95;;
54575;SDS011;40472;53.486;14.542;2022-10-31T05:08:14;71.10;;;22.63;;
54575;SDS011;40472;53.486;14.542;2022-10-31T05:10:40;79.20;;;23.88;;
54575;SDS011;40472;53.486;14.542;2022-10-31T05:13:06;84.93;;;25.98;;
54575;SDS011;40472;53.486;14.542;2022-10-31T05:15:33;88.47;;;27.65;;
54575;SDS011;40472;53.486;14.542;2022-10-31T05:17:59;86.35;;;26.90;;
54575;SDS011;40472;53.486;14.542;2022-10-31T05:20:25;89.60;;;28.38;;
54575;SDS011;40472;53.486;14.542;2022-10-31T05:22:53;88.20;;;27.48;;
54575;SDS011;40472;53.486;14.542;2022-10-31T05:25:21;106.03;;;27.13;;
54575;SDS011;40472;53.486;14.542;2022-10-31T05:27:50;107.57;;;28.15;;
54575;SDS011;40472;53.486;14.542;2022-10-31T05:30:18;116.40;;;27.38;;
54575;SDS011;40472;53.486;14.542;2022-10-31T05:32:47;245.93;;;29.63;;
54575;SDS011;40472;53.486;14.542;2022-10-31T05:35:21;325.67;;;31.13;;
54575;SDS011;40472;53.486;14.542;2022-10-31T05:37:50;216.82;;;27.13;;
54575;SDS011;40472;53.486;14.542;2022-10-31T05:40:16;234.52;;;27.70;;
54575;SDS011;40472;53.486;14.542;2022-10-31T05:42:44;122.07;;;26.58;;
54575;SDS011;40472;53.486;14.542;2022-10-31T05:45:11;113.07;;;26.98;;
54575;SDS011;40472;53.486;14.542;2022-10-31T05:47:41;136.70;;;25.90;;
54575;SDS011;40472;53.486;14.542;2022-10-31T05:50:08;74.50;;;23.63;;
54575;SDS011;40472;53.486;14.542;2022-10-31T05:52:37;72.65;;;24.05;;
54575;SDS011;40472;53.486;14.542;2022-10-31T05:55:03;64.85;;;22.17;;
54575;SDS011;40472;53.486;14.542;2022-10-31T05:57:29;71.97;;;22.27;;
54575;SDS011;40472;53.486;14.542;2022-10-31T05:59:56;79.57;;;24.83;;
54575;SDS011;40472;53.486;14.542;2022-10-31T06:02:22;75.25;;;24.23;;
54575;SDS011;40472;53.486;14.542;2022-10-31T06:04:48;84.95;;;25.45;;
54575;SDS011;40472;53.486;14.542;2022-10-31T06:07:14;81.00;;;24.58;;
54575;SDS011;40472;53.486;14.542;2022-10-31T06:09:39;100.22;;;27.67;;
54575;SDS011;40472;53.486;14.542;2022-10-31T06:12:05;90.32;;;25.90;;
54575;SDS011;40472;53.486;14.542;2022-10-31T06:14:31;87.22;;;26.17;;
54575;SDS011;40472;53.486;14.542;2022-10-31T06:16:57;89.07;;;26.98;;
54575;SDS011;40472;53.486;14.542;2022-10-31T06:19:23;85.80;;;24.63;;
54575;SDS011;40472;53.486;14.542;2022-10-31T06:21:49;98.53;;;27.40;;
54575;SDS011;40472;53.486;14.542;2022-10-31T06:24:14;106.38;;;28.20;;
54575;SDS011;40472;53.486;14.542;2022-10-31T06:26:40;83.93;;;27.80;;
54575;SDS011;40472;53.486;14.542;2022-10-31T06:29:06;90.00;;;27.30;;
54575;SDS011;40472;53.486;14.542;2022-10-31T06:31:32;82.10;;;26.02;;
54575;SDS011;40472;53.486;14.542;2022-10-31T06:33:58;82.25;;;26.00;;
54575;SDS011;40472;53.486;14.542;2022-10-31T06:36:24;96.93;;;28.67;;
54575;SDS011;40472;53.486;14.542;2022-10-31T06:38:50;105.57;;;27.83;;
54575;SDS011;40472;53.486;14.542;2022-10-31T06:41:16;97.18;;;29.00;;
54575;SDS011;40472;53.486;14.542;2022-10-31T06:43:41;105.07;;;27.80;;
54575;SDS011;40472;53.486;14.542;2022-10-31T06:46:07;84.40;;;25.30;;
54575;SDS011;40472;53.486;14.542;2022-10-31T06:48:33;97.53;;;27.92;;
54575;SDS011;40472;53.486;14.542;2022-10-31T06:51:00;100.47;;;27.50;;
54575;SDS011;40472;53.486;14.542;2022-10-31T06:53:26;106.88;;;29.05;;
54575;SDS011;40472;53.486;14.542;2022-10-31T06:55:55;94.28;;;27.35;;
54575;SDS011;40472;53.486;14.542;2022-10-31T06:58:21;95.32;;;28.58;;
54575;SDS011;40472;53.486;14.542;2022-10-31T07:00:48;93.93;;;27.30;;
54575;SDS011;40472;53.486;14.542;2022-10-31T07:03:16;82.40;;;28.75;;
54575;SDS011;40472;53.486;14.542;2022-10-31T07:05:42;95.13;;;29.33;;
54575;SDS011;40472;53.486;14.542;2022-10-31T07:08:12;77.25;;;28.77;;
54575;SDS011;40472;53.486;14.542;2022-10-31T07:10:39;80.40;;;26.73;;
54575;SDS011;40472;53.486;14.542;2022-10-31T07:13:09;84.70;;;27.30;;
54575;SDS011;40472;53.486;14.542;2022-10-31T07:15:38;92.90;;;28.38;;
54575;SDS011;40472;53.486;14.542;2022-10-31T07:18:06;91.47;;;28.00;;
54575;SDS011;40472;53.486;14.542;2022-10-31T07:20:36;74.93;;;26.92;;
54575;SDS011;40472;53.486;14.542;2022-10-31T07:23:02;77.68;;;26.10;;
54575;SDS011;40472;53.486;14.542;2022-10-31T07:25:28;67.47;;;25.00;;
54575;SDS011;40472;53.486;14.542;2022-10-31T07:27:58;86.75;;;27.42;;
54575;SDS011;40472;53.486;14.542;2022-10-31T07:30:24;79.25;;;25.92;;
54575;SDS011;40472;53.486;14.542;2022-10-31T07:32:50;88.45;;;26.73;;
54575;SDS011;40472;53.486;14.542;2022-10-31T07:35:17;71.65;;;25.13;;
54575;SDS011;40472;53.486;14.542;2022-10-31T07:37:43;80.53;;;25.17;;
54575;SDS011;40472;53.486;14.542;2022-10-31T07:40:10;84.15;;;24.20;;
54575;SDS011;40472;53.486;14.542;2022-10-31T07:42:40;78.68;;;25.50;;
54575;SDS011;40472;53.486;14.542;2022-10-31T07:45:08;68.80;;;23.90;;
54575;SDS011;40472;53.486;14.542;2022-10-31T07:50:04;64.43;;;24.08;;
54575;SDS011;40472;53.486;14.542;2022-10-31T07:52:31;66.78;;;25.45;;
54575;SDS011;40472;53.486;14.542;2022-10-31T07:54:56;77.93;;;25.92;;
54575;SDS011;40472;53.486;14.542;2022-10-31T07:57:22;61.40;;;24.13;;
54575;SDS011;40472;53.486;14.542;2022-10-31T07:59:48;67.45;;;24.63;;
54575;SDS011;40472;53.486;14.542;2022-10-31T08:02:14;55.20;;;22.23;;
54575;SDS011;40472;53.486;14.542;2022-10-31T08:04:40;52.42;;;22.40;;
54575;SDS011;40472;53.486;14.542;2022-10-31T08:07:06;55.75;;;22.05;;
54575;SDS011;40472;53.486;14.542;2022-10-31T08:09:31;55.17;;;21.63;;
54575;SDS011;40472;53.486;14.542;2022-10-31T08:11:57;47.65;;;21.08;;
54575;SDS011;40472;53.486;14.542;2022-10-31T08:14:23;51.78;;;21.50;;
54575;SDS011;40472;53.486;14.542;2022-10-31T08:16:49;43.97;;;19.15;;
54575;SDS011;40472;53.486;14.542;2022-10-31T08:19:14;61.78;;;20.45;;
54575;SDS011;40472;53.486;14.542;2022-10-31T08:21:40;52.85;;;20.52;;
54575;SDS011;40472;53.486;14.542;2022-10-31T08:24:06;48.08;;;17.15;;
54575;SDS011;40472;53.486;14.542;2022-10-31T08:26:32;42.45;;;18.63;;
54575;SDS011;40472;53.486;14.542;2022-10-31T08:28:58;43.45;;;19.20;;
54575;SDS011;40472;53.486;14.542;2022-10-31T08:31:23;41.95;;;17.90;;
54575;SDS011;40472;53.486;14.542;2022-10-31T08:33:52;52.05;;;19.13;;
54575;SDS011;40472;53.486;14.542;2022-10-31T08:36:18;42.38;;;18.00;;
54575;SDS011;40472;53.486;14.542;2022-10-31T08:38:46;39.20;;;17.00;;
54575;SDS011;40472;53.486;14.542;2022-10-31T08:41:12;40.80;;;18.75;;
54575;SDS011;40472;53.486;14.542;2022-10-31T08:43:38;29.77;;;15.90;;
54575;SDS011;40472;53.486;14.542;2022-10-31T08:46:04;35.95;;;16.55;;
54575;SDS011;40472;53.486;14.542;2022-10-31T08:48:31;40.50;;;16.08;;
54575;SDS011;40472;53.486;14.542;2022-10-31T08:50:58;37.95;;;14.68;;
54575;SDS011;40472;53.486;14.542;2022-10-31T08:53:24;45.10;;;15.45;;
54575;SDS011;40472;53.486;14.542;2022-10-31T08:55:51;37.83;;;14.45;;
54575;SDS011;40472;53.486;14.542;2022-10-31T08:58:20;36.92;;;14.07;;
54575;SDS011;40472;53.486;14.542;2022-10-31T09:00:48;27.15;;;13.98;;
54575;SDS011;40472;53.486;14.542;2022-10-31T09:03:21;36.22;;;12.77;;
54575;SDS011;40472;53.486;14.542;2022-10-31T09:05:55;29.13;;;13.68;;
54575;SDS011;40472;53.486;14.542;2022-10-31T09:08:22;25.52;;;11.32;;
54575;SDS011;40472;53.486;14.542;2022-10-31T09:10:48;29.92;;;12.05;;
54575;SDS011;40472;53.486;14.542;2022-10-31T09:13:15;29.25;;;11.85;;
54575;SDS011;40472;53.486;14.542;2022-10-31T09:15:44;28.50;;;11.80;;
54575;SDS011;40472;53.486;14.542;2022-10-31T09:18:12;26.27;;;12.07;;
54575;SDS011;40472;53.486;14.542;2022-10-31T09:20:40;19.67;;;10.52;;
54575;SDS011;40472;53.486;14.542;2022-10-31T09:23:08;28.52;;;11.88;;
54575;SDS011;40472;53.486;14.542;2022-10-31T09:25:36;26.95;;;11.52;;
54575;SDS011;40472;53.486;14.542;2022-10-31T09:28:03;24.63;;;12.75;;
54575;SDS011;40472;53.486;14.542;2022-10-31T09:30:31;25.70;;;11.38;;
54575;SDS011;40472;53.486;14.542;2022-10-31T09:33:04;18.08;;;8.95;;
54575;SDS011;40472;53.486;14.542;2022-10-31T09:35:32;24.45;;;11.63;;
54575;SDS011;40472;53.486;14.542;2022-10-31T09:37:59;29.70;;;11.43;;
54575;SDS011;40472;53.486;14.542;2022-10-31T09:40:39;29.30;;;13.18;;
54575;SDS011;40472;53.486;14.542;2022-10-31T09:50:48;26.80;;;11.75;;
54575;SDS011;40472;53.486;14.542;2022-10-31T09:53:26;22.10;;;12.30;;
54575;SDS011;40472;53.486;14.542;2022-10-31T09:56:15;30.17;;;12.93;;
54575;SDS011;40472;53.486;14.542;2022-10-31T09:58:53;21.13;;;11.00;;
54575;SDS011;40472;53.486;14.542;2022-10-31T10:03:59;25.75;;;13.00;;
54575;SDS011;40472;53.486;14.542;2022-10-31T10:06:30;29.13;;;12.60;;
54575;SDS011;40472;53.486;14.542;2022-10-31T10:09:01;27.63;;;12.77;;
54575;SDS011;40472;53.486;14.542;2022-10-31T10:11:46;31.98;;;13.27;;
54575;SDS011;40472;53.486;14.542;2022-10-31T10:14:39;21.02;;;12.45;;
54575;SDS011;40472;53.486;14.542;2022-10-31T10:19:48;30.80;;;11.77;;
54575;SDS011;40472;53.486;14.542;2022-10-31T10:27:47;23.33;;;10.82;;
54575;SDS011;40472;53.486;14.542;2022-10-31T10:30:42;32.88;;;11.20;;
54575;SDS011;40472;53.486;14.542;2022-10-31T10:35:44;25.80;;;10.75;;
54575;SDS011;40472;53.486;14.542;2022-10-31T10:40:49;20.90;;;10.65;;
54575;SDS011;40472;53.486;14.542;2022-10-31T10:43:21;20.08;;;10.25;;
54575;SDS011;40472;53.486;14.542;2022-10-31T10:46:00;23.13;;;11.55;;
54575;SDS011;40472;53.486;14.542;2022-10-31T10:51:36;24.75;;;10.90;;
54575;SDS011;40472;53.486;14.542;2022-10-31T10:59:29;25.88;;;12.00;;
54575;SDS011;40472;53.486;14.542;2022-10-31T11:01:56;26.50;;;10.50;;
54575;SDS011;40472;53.486;14.542;2022-10-31T11:04:25;18.63;;;8.18;;
54575;SDS011;40472;53.486;14.542;2022-10-31T11:07:01;25.02;;;10.10;;
54575;SDS011;40472;53.486;14.542;2022-10-31T11:09:27;18.40;;;9.02;;
54575;SDS011;40472;53.486;14.542;2022-10-31T11:11:54;21.60;;;9.98;;
54575;SDS011;40472;53.486;14.542;2022-10-31T11:14:21;20.35;;;9.50;;
54575;SDS011;40472;53.486;14.542;2022-10-31T11:16:53;17.17;;;9.35;;
54575;SDS011;40472;53.486;14.542;2022-10-31T11:19:31;21.42;;;10.68;;
54575;SDS011;40472;53.486;14.542;2022-10-31T11:22:05;22.38;;;9.55;;
54575;SDS011;40472;53.486;14.542;2022-10-31T11:27:14;22.42;;;9.45;;
54575;SDS011;40472;53.486;14.542;2022-10-31T11:29:48;22.23;;;9.88;;
54575;SDS011;40472;53.486;14.542;2022-10-31T11:32:21;22.92;;;8.80;;
54575;SDS011;40472;53.486;14.542;2022-10-31T11:34:53;22.52;;;9.18;;
54575;SDS011;40472;53.486;14.542;2022-10-31T11:37:23;20.00;;;9.02;;
54575;SDS011;40472;53.486;14.542;2022-10-31T11:39:56;26.00;;;9.90;;
54575;SDS011;40472;53.486;14.542;2022-10-31T11:44:59;21.65;;;10.82;;
54575;SDS011;40472;53.486;14.542;2022-10-31T11:47:31;19.33;;;10.30;;
54575;SDS011;40472;53.486;14.542;2022-10-31T11:50:02;22.45;;;10.00;;
54575;SDS011;40472;53.486;14.542;2022-10-31T11:52:36;22.67;;;8.98;;
54575;SDS011;40472;53.486;14.542;2022-10-31T11:57:50;25.02;;;10.80;;
54575;SDS011;40472;53.486;14.542;2022-10-31T12:00:25;22.05;;;9.48;;
54575;SDS011;40472;53.486;14.542;2022-10-31T12:03:01;21.85;;;8.80;;
54575;SDS011;40472;53.486;14.542;2022-10-31T12:06:12;23.20;;;10.15;;
54575;SDS011;40472;53.486;14.542;2022-10-31T12:08:37;14.60;;;10.13;;
54575;SDS011;40472;53.486;14.542;2022-10-31T12:11:09;23.92;;;9.55;;
54575;SDS011;40472;53.486;14.542;2022-10-31T12:16:21;19.00;;;9.20;;
54575;SDS011;40472;53.486;14.542;2022-10-31T12:19:06;20.10;;;9.00;;
54575;SDS011;40472;53.486;14.542;2022-10-31T12:24:27;24.05;;;9.98;;
54575;SDS011;40472;53.486;14.542;2022-10-31T12:27:16;20.88;;;10.27;;
54575;SDS011;40472;53.486;14.542;2022-10-31T12:32:20;23.73;;;10.88;;
54575;SDS011;40472;53.486;14.542;2022-10-31T12:40:22;27.58;;;12.93;;
54575;SDS011;40472;53.486;14.542;2022-10-31T13:01:53;27.67;;;12.52;;
54575;SDS011;40472;53.486;14.542;2022-10-31T13:07:02;24.37;;;10.40;;
54575;SDS011;40472;53.486;14.542;2022-10-31T13:09:46;18.55;;;10.02;;
54575;SDS011;40472;53.486;14.542;2022-10-31T13:12:25;30.52;;;11.75;;
54575;SDS011;40472;53.486;14.542;2022-10-31T13:14:56;21.35;;;10.40;;
54575;SDS011;40472;53.486;14.542;2022-10-31T13:17:35;22.45;;;9.82;;
54575;SDS011;40472;53.486;14.542;2022-10-31T13:23:35;26.58;;;10.60;;
54575;SDS011;40472;53.486;14.542;2022-10-31T13:26:06;25.15;;;10.50;;
54575;SDS011;40472;53.486;14.542;2022-10-31T13:31:22;18.52;;;9.25;;
54575;SDS011;40472;53.486;14.542;2022-10-31T13:33:58;28.95;;;13.80;;
54575;SDS011;40472;53.486;14.542;2022-10-31T13:36:41;23.85;;;13.38;;
54575;SDS011;40472;53.486;14.542;2022-10-31T13:39:54;32.55;;;15.98;;
54575;SDS011;40472;53.486;14.542;2022-10-31T13:45:52;40.25;;;17.15;;
54575;SDS011;40472;53.486;14.542;2022-10-31T13:48:31;37.80;;;19.27;;
54575;SDS011;40472;53.486;14.542;2022-10-31T13:51:01;42.85;;;19.85;;
54575;SDS011;40472;53.486;14.542;2022-10-31T13:54:19;46.72;;;20.30;;
54575;SDS011;40472;53.486;14.542;2022-10-31T13:56:21;42.15;;;20.80;;
54575;SDS011;40472;53.486;14.542;2022-10-31T14:01:52;59.83;;;23.25;;
54575;SDS011;40472;53.486;14.542;2022-10-31T14:04:25;49.40;;;21.33;;
54575;SDS011;40472;53.486;14.542;2022-10-31T14:09:53;46.60;;;21.65;;
54575;SDS011;40472;53.486;14.542;2022-10-31T14:17:45;45.70;;;20.67;;
54575;SDS011;40472;53.486;14.542;2022-10-31T14:22:43;43.28;;;19.35;;
54575;SDS011;40472;53.486;14.542;2022-10-31T14:27:50;44.63;;;19.30;;
54575;SDS011;40472;53.486;14.542;2022-10-31T14:30:19;41.90;;;18.45;;
54575;SDS011;40472;53.486;14.542;2022-10-31T14:33:01;48.53;;;16.70;;
54575;SDS011;40472;53.486;14.542;2022-10-31T14:35:53;45.42;;;17.95;;
54575;SDS011;40472;53.486;14.542;2022-10-31T14:51:48;69.45;;;12.90;;
54575;SDS011;40472;53.486;14.542;2022-10-31T14:54:28;71.40;;;15.55;;
54575;SDS011;40472;53.486;14.542;2022-10-31T14:57:04;63.42;;;13.68;;
54575;SDS011;40472;53.486;14.542;2022-10-31T14:59:45;72.07;;;12.45;;
54575;SDS011;40472;53.486;14.542;2022-10-31T15:02:20;81.32;;;13.05;;
54575;SDS011;40472;53.486;14.542;2022-10-31T15:04:52;122.90;;;13.55;;
54575;SDS011;40472;53.486;14.542;2022-10-31T15:07:24;109.03;;;11.70;;
54575;SDS011;40472;53.486;14.542;2022-10-31T15:09:57;69.28;;;11.68;;
54575;SDS011;40472;53.486;14.542;2022-10-31T15:12:32;100.55;;;13.18;;
54575;SDS011;40472;53.486;14.542;2022-10-31T15:15:12;62.63;;;11.15;;
54575;SDS011;40472;53.486;14.542;2022-10-31T15:17:47;50.00;;;11.35;;
54575;SDS011;40472;53.486;14.542;2022-10-31T15:20:28;75.75;;;11.35;;
54575;SDS011;40472;53.486;14.542;2022-10-31T15:22:57;65.22;;;13.18;;
54575;SDS011;40472;53.486;14.542;2022-10-31T15:25:25;192.68;;;13.95;;
54575;SDS011;40472;53.486;14.542;2022-10-31T15:27:55;48.38;;;11.13;;
54575;SDS011;40472;53.486;14.542;2022-10-31T15:30:24;67.78;;;11.40;;
54575;SDS011;40472;53.486;14.542;2022-10-31T15:32:52;99.47;;;9.43;;
54575;SDS011;40472;53.486;14.542;2022-10-31T15:37:49;41.55;;;7.82;;
54575;SDS011;40472;53.486;14.542;2022-10-31T15:40:17;75.57;;;10.82;;
54575;SDS011;40472;53.486;14.542;2022-10-31T15:42:46;93.43;;;10.25;;
54575;SDS011;40472;53.486;14.542;2022-10-31T15:45:19;86.38;;;12.93;;
54575;SDS011;40472;53.486;14.542;2022-10-31T15:47:55;46.00;;;10.27;;
54575;SDS011;40472;53.486;14.542;2022-10-31T15:52:53;139.75;;;12.18;;
54575;SDS011;40472;53.486;14.542;2022-10-31T15:55:24;113.43;;;13.48;;
54575;SDS011;40472;53.486;14.542;2022-10-31T15:57:58;124.13;;;14.32;;
54575;SDS011;40472;53.486;14.542;2022-10-31T16:00:32;76.85;;;12.45;;
54575;SDS011;40472;53.486;14.542;2022-10-31T16:03:09;63.53;;;9.85;;
54575;SDS011;40472;53.486;14.542;2022-10-31T16:05:45;87.97;;;11.88;;
54575;SDS011;40472;53.486;14.542;2022-10-31T16:13:39;45.92;;;12.25;;
54575;SDS011;40472;53.486;14.542;2022-10-31T16:16:17;50.78;;;12.40;;
54575;SDS011;40472;53.486;14.542;2022-10-31T16:18:45;56.50;;;12.70;;
54575;SDS011;40472;53.486;14.542;2022-10-31T16:21:11;51.03;;;13.75;;
54575;SDS011;40472;53.486;14.542;2022-10-31T16:23:39;75.00;;;14.13;;
54575;SDS011;40472;53.486;14.542;2022-10-31T16:26:13;71.18;;;15.50;;
54575;SDS011;40472;53.486;14.542;2022-10-31T16:28:49;56.67;;;14.10;;
54575;SDS011;40472;53.486;14.542;2022-10-31T16:31:24;99.35;;;16.73;;
54575;SDS011;40472;53.486;14.542;2022-10-31T16:36:40;115.65;;;18.52;;
54575;SDS011;40472;53.486;14.542;2022-10-31T16:39:06;102.63;;;20.92;;
54575;SDS011;40472;53.486;14.542;2022-10-31T16:41:35;113.18;;;19.25;;
54575;SDS011;40472;53.486;14.542;2022-10-31T16:44:14;130.90;;;19.95;;
54575;SDS011;40472;53.486;14.542;2022-10-31T16:49:34;150.65;;;22.30;;
54575;SDS011;40472;53.486;14.542;2022-10-31T16:52:00;172.00;;;24.90;;
54575;SDS011;40472;53.486;14.542;2022-10-31T16:54:27;144.65;;;22.95;;
54575;SDS011;40472;53.486;14.542;2022-10-31T16:56:54;148.38;;;23.38;;
54575;SDS011;40472;53.486;14.542;2022-10-31T16:59:20;182.40;;;23.58;;
54575;SDS011;40472;53.486;14.542;2022-10-31T17:01:47;168.88;;;23.98;;
54575;SDS011;40472;53.486;14.542;2022-10-31T17:04:14;101.53;;;21.27;;
54575;SDS011;40472;53.486;14.542;2022-10-31T17:06:41;106.05;;;20.73;;
54575;SDS011;40472;53.486;14.542;2022-10-31T17:09:10;162.18;;;22.05;;
54575;SDS011;40472;53.486;14.542;2022-10-31T17:11:39;102.18;;;19.83;;
54575;SDS011;40472;53.486;14.542;2022-10-31T17:14:17;65.72;;;15.35;;
54575;SDS011;40472;53.486;14.542;2022-10-31T17:16:43;99.25;;;18.88;;
54575;SDS011;40472;53.486;14.542;2022-10-31T17:19:09;61.20;;;14.38;;
54575;SDS011;40472;53.486;14.542;2022-10-31T17:21:36;39.97;;;11.93;;
54575;SDS011;40472;53.486;14.542;2022-10-31T17:24:03;53.08;;;13.25;;
54575;SDS011;40472;53.486;14.542;2022-10-31T17:26:29;39.75;;;12.05;;
54575;SDS011;40472;53.486;14.542;2022-10-31T17:28:58;22.67;;;9.07;;
54575;SDS011;40472;53.486;14.542;2022-10-31T17:31:27;31.90;;;9.35;;
54575;SDS011;40472;53.486;14.542;2022-10-31T17:33:55;35.13;;;10.20;;
54575;SDS011;40472;53.486;14.542;2022-10-31T17:36:22;31.92;;;8.50;;
54575;SDS011;40472;53.486;14.542;2022-10-31T17:38:48;32.15;;;9.00;;
54575;SDS011;40472;53.486;14.542;2022-10-31T17:41:14;32.50;;;7.78;;
54575;SDS011;40472;53.486;14.542;2022-10-31T17:43:40;27.52;;;8.73;;
54575;SDS011;40472;53.486;14.542;2022-10-31T17:46:09;29.42;;;9.48;;
54575;SDS011;40472;53.486;14.542;2022-10-31T17:48:35;33.95;;;8.63;;
54575;SDS011;40472;53.486;14.542;2022-10-31T17:51:02;33.53;;;7.72;;
54575;SDS011;40472;53.486;14.542;2022-10-31T17:53:30;29.13;;;7.65;;